sensor_id;sensor_type;location;lat;lon;timestamp;temperature;humidity
15554;DHT22;7878;44.632;10.942;2023-03-01T00:02:06;7.90;85.90
15554;DHT22;7878;44.632;10.942;2023-03-01T00:04:32;7.90;85.90
15554;DHT22;7878;44.632;10.942;2023-03-01T00:06:58;7.90;86.00
15554;DHT22;7878;44.632;10.942;2023-03-01T00:09:23;7.90;85.50
15554;DHT22;7878;44.632;10.942;2023-03-01T00:11:49;7.90;85.70
15554;DHT22;7878;44.632;10.942;2023-03-01T00:14:15;7.90;85.70
15554;DHT22;7878;44.632;10.942;2023-03-01T00:16:45;7.90;85.50
15554;DHT22;7878;44.632;10.942;2023-03-01T00:19:13;8.00;85.40
15554;DHT22;7878;44.632;10.942;2023-03-01T00:21:39;8.00;85.20
15554;DHT22;7878;44.632;10.942;2023-03-01T00:24:05;8.00;85.10
15554;DHT22;7878;44.632;10.942;2023-03-01T00:26:31;8.00;84.60
15554;DHT22;7878;44.632;10.942;2023-03-01T00:28:58;7.90;84.90
15554;DHT22;7878;44.632;10.942;2023-03-01T00:31:26;7.90;85.20
15554;DHT22;7878;44.632;10.942;2023-03-01T00:33:54;7.90;85.10
15554;DHT22;7878;44.632;10.942;2023-03-01T00:36:24;7.90;85.20
15554;DHT22;7878;44.632;10.942;2023-03-01T00:38:51;7.90;85.40
15554;DHT22;7878;44.632;10.942;2023-03-01T00:41:21;8.00;85.50
15554;DHT22;7878;44.632;10.942;2023-03-01T00:43:48;8.00;85.50
15554;DHT22;7878;44.632;10.942;2023-03-01T00:46:17;7.90;85.50
15554;DHT22;7878;44.632;10.942;2023-03-01T00:48:43;8.00;85.10
15554;DHT22;7878;44.632;10.942;2023-03-01T00:51:11;8.00;84.90
15554;DHT22;7878;44.632;10.942;2023-03-01T00:53:37;8.00;85.50
15554;DHT22;7878;44.632;10.942;2023-03-01T00:56:05;8.00;84.30
15554;DHT22;7878;44.632;10.942;2023-03-01T00:58:32;7.90;84.80
15554;DHT22;7878;44.632;10.942;2023-03-01T01:00:58;7.90;84.60
15554;DHT22;7878;44.632;10.942;2023-03-01T01:03:24;7.90;85.40
15554;DHT22;7878;44.632;10.942;2023-03-01T01:05:51;8.00;84.80
15554;DHT22;7878;44.632;10.942;2023-03-01T01:08:18;8.00;84.90
15554;DHT22;7878;44.632;10.942;2023-03-01T01:10:44;8.10;85.10
15554;DHT22;7878;44.632;10.942;2023-03-01T01:13:10;8.10;84.80
15554;DHT22;7878;44.632;10.942;2023-03-01T01:15:36;8.10;84.40
15554;DHT22;7878;44.632;10.942;2023-03-01T01:18:02;8.10;84.80
15554;DHT22;7878;44.632;10.942;2023-03-01T01:20:28;8.10;84.60
15554;DHT22;7878;44.632;10.942;2023-03-01T01:22:54;8.10;84.00
15554;DHT22;7878;44.632;10.942;2023-03-01T01:25:20;8.10;84.30
15554;DHT22;7878;44.632;10.942;2023-03-01T01:27:46;8.00;84.10
15554;DHT22;7878;44.632;10.942;2023-03-01T01:30:12;8.00;83.80
15554;DHT22;7878;44.632;10.942;2023-03-01T01:32:38;8.10;83.60
15554;DHT22;7878;44.632;10.942;2023-03-01T01:35:04;8.10;83.50
15554;DHT22;7878;44.632;10.942;2023-03-01T01:37:30;8.00;83.40
15554;DHT22;7878;44.632;10.942;2023-03-01T01:40:02;8.10;83.50
15554;DHT22;7878;44.632;10.942;2023-03-01T01:42:31;8.10;83.30
15554;DHT22;7878;44.632;10.942;2023-03-01T01:48:13;8.10;82.70
15554;DHT22;7878;44.632;10.942;2023-03-01T01:50:40;8.10;83.20
15554;DHT22;7878;44.632;10.942;2023-03-01T01:53:10;8.10;82.60
15554;DHT22;7878;44.632;10.942;2023-03-01T01:55:42;8.00;81.80
15554;DHT22;7878;44.632;10.942;2023-03-01T01:58:10;7.90;82.10
15554;DHT22;7878;44.632;10.942;2023-03-01T02:00:37;7.80;81.60
15554;DHT22;7878;44.632;10.942;2023-03-01T02:03:14;7.70;81.60
15554;DHT22;7878;44.632;10.942;2023-03-01T02:06:23;7.70;81.70
15554;DHT22;7878;44.632;10.942;2023-03-01T02:08:57;7.80;81.90
15554;DHT22;7878;44.632;10.942;2023-03-01T02:11:25;7.80;82.30
15554;DHT22;7878;44.632;10.942;2023-03-01T02:13:52;7.80;82.10
15554;DHT22;7878;44.632;10.942;2023-03-01T02:16:19;7.80;81.90
15554;DHT22;7878;44.632;10.942;2023-03-01T02:18:45;7.90;81.80
15554;DHT22;7878;44.632;10.942;2023-03-01T02:23:43;7.90;82.10
15554;DHT22;7878;44.632;10.942;2023-03-01T02:26:19;7.90;82.50
15554;DHT22;7878;44.632;10.942;2023-03-01T02:28:46;7.90;82.80
15554;DHT22;7878;44.632;10.942;2023-03-01T02:31:16;8.00;82.60
15554;DHT22;7878;44.632;10.942;2023-03-01T02:34:01;8.00;82.30
15554;DHT22;7878;44.632;10.942;2023-03-01T02:36:33;8.00;82.60
15554;DHT22;7878;44.632;10.942;2023-03-01T02:39:03;8.00;82.50
15554;DHT22;7878;44.632;10.942;2023-03-01T02:41:32;8.00;82.50
15554;DHT22;7878;44.632;10.942;2023-03-01T02:43:59;8.00;82.50
15554;DHT22;7878;44.632;10.942;2023-03-01T02:46:26;8.00;82.30
15554;DHT22;7878;44.632;10.942;2023-03-01T02:48:53;8.00;82.10
15554;DHT22;7878;44.632;10.942;2023-03-01T02:54:26;8.00;81.70
15554;DHT22;7878;44.632;10.942;2023-03-01T02:56:54;7.90;81.30
15554;DHT22;7878;44.632;10.942;2023-03-01T02:59:24;8.00;81.70
15554;DHT22;7878;44.632;10.942;2023-03-01T03:01:52;8.00;81.20
15554;DHT22;7878;44.632;10.942;2023-03-01T03:04:19;7.90;81.30
15554;DHT22;7878;44.632;10.942;2023-03-01T03:06:47;7.90;81.60
15554;DHT22;7878;44.632;10.942;2023-03-01T03:09:14;7.90;81.90
15554;DHT22;7878;44.632;10.942;2023-03-01T03:11:40;7.90;81.60
15554;DHT22;7878;44.632;10.942;2023-03-01T03:14:09;7.90;81.80
15554;DHT22;7878;44.632;10.942;2023-03-01T03:16:46;7.90;81.70
15554;DHT22;7878;44.632;10.942;2023-03-01T03:19:13;7.90;81.50
15554;DHT22;7878;44.632;10.942;2023-03-01T03:21:39;7.90;81.50
15554;DHT22;7878;44.632;10.942;2023-03-01T03:24:05;7.90;81.50
15554;DHT22;7878;44.632;10.942;2023-03-01T03:26:31;7.90;81.50
15554;DHT22;7878;44.632;10.942;2023-03-01T03:28:57;7.90;81.70
15554;DHT22;7878;44.632;10.942;2023-03-01T03:31:23;7.90;81.80
15554;DHT22;7878;44.632;10.942;2023-03-01T03:33:49;8.00;81.90
15554;DHT22;7878;44.632;10.942;2023-03-01T03:36:17;8.00;82.00
15554;DHT22;7878;44.632;10.942;2023-03-01T03:38:43;8.00;82.10
15554;DHT22;7878;44.632;10.942;2023-03-01T03:41:09;8.00;81.60
15554;DHT22;7878;44.632;10.942;2023-03-01T03:43:37;8.00;81.40
15554;DHT22;7878;44.632;10.942;2023-03-01T03:46:04;7.90;80.30
15554;DHT22;7878;44.632;10.942;2023-03-01T03:48:39;7.80;80.80
15554;DHT22;7878;44.632;10.942;2023-03-01T03:51:06;7.90;81.20
15554;DHT22;7878;44.632;10.942;2023-03-01T03:53:32;7.90;81.50
15554;DHT22;7878;44.632;10.942;2023-03-01T03:55:58;7.90;81.60
15554;DHT22;7878;44.632;10.942;2023-03-01T03:58:25;7.90;81.80
15554;DHT22;7878;44.632;10.942;2023-03-01T04:00:53;7.90;81.80
15554;DHT22;7878;44.632;10.942;2023-03-01T04:03:21;7.90;81.90
15554;DHT22;7878;44.632;10.942;2023-03-01T04:05:47;7.90;82.00
15554;DHT22;7878;44.632;10.942;2023-03-01T04:08:15;8.00;82.00
15554;DHT22;7878;44.632;10.942;2023-03-01T04:10:45;7.90;81.40
15554;DHT22;7878;44.632;10.942;2023-03-01T04:13:15;7.90;81.60
15554;DHT22;7878;44.632;10.942;2023-03-01T04:15:41;7.90;81.90
15554;DHT22;7878;44.632;10.942;2023-03-01T04:18:15;8.00;81.40
15554;DHT22;7878;44.632;10.942;2023-03-01T04:20:41;7.90;82.00
15554;DHT22;7878;44.632;10.942;2023-03-01T04:23:10;7.90;82.40
15554;DHT22;7878;44.632;10.942;2023-03-01T04:25:57;7.90;82.10
15554;DHT22;7878;44.632;10.942;2023-03-01T04:28:26;7.90;81.80
15554;DHT22;7878;44.632;10.942;2023-03-01T04:30:54;7.90;81.80
15554;DHT22;7878;44.632;10.942;2023-03-01T04:33:20;7.90;82.10
15554;DHT22;7878;44.632;10.942;2023-03-01T04:35:46;7.90;82.20
15554;DHT22;7878;44.632;10.942;2023-03-01T04:38:18;7.80;82.00
15554;DHT22;7878;44.632;10.942;2023-03-01T04:40:44;7.90;82.50
15554;DHT22;7878;44.632;10.942;2023-03-01T04:43:11;7.90;82.30
15554;DHT22;7878;44.632;10.942;2023-03-01T04:45:38;7.90;82.20
15554;DHT22;7878;44.632;10.942;2023-03-01T04:48:04;7.90;82.50
15554;DHT22;7878;44.632;10.942;2023-03-01T04:50:31;7.90;82.70
15554;DHT22;7878;44.632;10.942;2023-03-01T04:52:57;7.90;82.60
15554;DHT22;7878;44.632;10.942;2023-03-01T04:55:27;7.90;82.90
15554;DHT22;7878;44.632;10.942;2023-03-01T04:57:54;8.00;82.40
15554;DHT22;7878;44.632;10.942;2023-03-01T05:00:21;8.00;82.60
15554;DHT22;7878;44.632;10.942;2023-03-01T05:02:52;8.00;82.50
15554;DHT22;7878;44.632;10.942;2023-03-01T05:05:25;8.00;82.40
15554;DHT22;7878;44.632;10.942;2023-03-01T05:07:55;8.00;82.10
15554;DHT22;7878;44.632;10.942;2023-03-01T05:10:22;8.00;82.30
15554;DHT22;7878;44.632;10.942;2023-03-01T05:12:48;8.00;82.30
15554;DHT22;7878;44.632;10.942;2023-03-01T05:15:13;8.00;82.40
15554;DHT22;7878;44.632;10.942;2023-03-01T05:17:39;8.00;82.50
15554;DHT22;7878;44.632;10.942;2023-03-01T05:20:05;8.00;82.50
15554;DHT22;7878;44.632;10.942;2023-03-01T05:22:34;8.00;82.70
15554;DHT22;7878;44.632;10.942;2023-03-01T05:25:01;7.90;83.00
15554;DHT22;7878;44.632;10.942;2023-03-01T05:27:26;7.90;83.10
15554;DHT22;7878;44.632;10.942;2023-03-01T05:29:52;7.90;84.00
15554;DHT22;7878;44.632;10.942;2023-03-01T05:32:18;7.90;83.60
15554;DHT22;7878;44.632;10.942;2023-03-01T05:34:43;7.90;84.20
15554;DHT22;7878;44.632;10.942;2023-03-01T05:37:12;7.80;84.50
15554;DHT22;7878;44.632;10.942;2023-03-01T05:39:37;7.80;85.20
15554;DHT22;7878;44.632;10.942;2023-03-01T05:42:03;7.80;86.20
15554;DHT22;7878;44.632;10.942;2023-03-01T05:44:29;7.80;86.50
15554;DHT22;7878;44.632;10.942;2023-03-01T05:46:55;7.90;87.40
15554;DHT22;7878;44.632;10.942;2023-03-01T05:49:22;7.80;87.60
15554;DHT22;7878;44.632;10.942;2023-03-01T05:51:52;7.80;86.90
15554;DHT22;7878;44.632;10.942;2023-03-01T05:54:20;7.80;89.00
15554;DHT22;7878;44.632;10.942;2023-03-01T05:56:46;7.80;89.40
15554;DHT22;7878;44.632;10.942;2023-03-01T05:59:12;7.70;89.40
15554;DHT22;7878;44.632;10.942;2023-03-01T06:01:39;7.70;89.00
15554;DHT22;7878;44.632;10.942;2023-03-01T06:04:05;7.70;89.50
15554;DHT22;7878;44.632;10.942;2023-03-01T06:06:34;7.70;89.90
15554;DHT22;7878;44.632;10.942;2023-03-01T06:09:00;7.70;90.30
15554;DHT22;7878;44.632;10.942;2023-03-01T06:11:25;7.70;90.40
15554;DHT22;7878;44.632;10.942;2023-03-01T06:13:51;7.70;90.30
15554;DHT22;7878;44.632;10.942;2023-03-01T06:16:17;7.70;90.40
15554;DHT22;7878;44.632;10.942;2023-03-01T06:18:42;7.70;90.50
15554;DHT22;7878;44.632;10.942;2023-03-01T06:21:08;7.70;90.70
15554;DHT22;7878;44.632;10.942;2023-03-01T06:23:35;7.60;90.90
15554;DHT22;7878;44.632;10.942;2023-03-01T06:26:05;7.60;90.40
15554;DHT22;7878;44.632;10.942;2023-03-01T06:28:31;7.60;90.30
15554;DHT22;7878;44.632;10.942;2023-03-01T06:30:56;7.60;90.50
15554;DHT22;7878;44.632;10.942;2023-03-01T06:33:22;7.70;90.70
15554;DHT22;7878;44.632;10.942;2023-03-01T06:35:50;7.70;91.10
15554;DHT22;7878;44.632;10.942;2023-03-01T06:38:15;7.70;91.10
15554;DHT22;7878;44.632;10.942;2023-03-01T06:40:44;7.70;91.20
15554;DHT22;7878;44.632;10.942;2023-03-01T06:43:09;7.70;91.00
15554;DHT22;7878;44.632;10.942;2023-03-01T06:45:36;7.70;91.20
15554;DHT22;7878;44.632;10.942;2023-03-01T06:48:06;7.70;91.50
15554;DHT22;7878;44.632;10.942;2023-03-01T06:50:33;7.70;91.50
15554;DHT22;7878;44.632;10.942;2023-03-01T06:53:00;7.70;91.20
15554;DHT22;7878;44.632;10.942;2023-03-01T06:55:25;7.60;91.00
15554;DHT22;7878;44.632;10.942;2023-03-01T06:58:01;7.50;91.10
15554;DHT22;7878;44.632;10.942;2023-03-01T07:00:27;7.50;91.40
15554;DHT22;7878;44.632;10.942;2023-03-01T07:02:54;7.50;91.40
15554;DHT22;7878;44.632;10.942;2023-03-01T07:05:20;7.40;91.30
15554;DHT22;7878;44.632;10.942;2023-03-01T07:07:45;7.40;91.50
15554;DHT22;7878;44.632;10.942;2023-03-01T07:10:12;7.30;91.60
15554;DHT22;7878;44.632;10.942;2023-03-01T07:12:38;7.30;92.10
15554;DHT22;7878;44.632;10.942;2023-03-01T07:15:04;7.30;92.10
15554;DHT22;7878;44.632;10.942;2023-03-01T07:17:30;7.30;92.20
15554;DHT22;7878;44.632;10.942;2023-03-01T07:19:56;7.30;91.90
15554;DHT22;7878;44.632;10.942;2023-03-01T07:22:22;7.30;92.10
15554;DHT22;7878;44.632;10.942;2023-03-01T07:24:47;7.30;92.30
15554;DHT22;7878;44.632;10.942;2023-03-01T07:27:13;7.40;92.50
15554;DHT22;7878;44.632;10.942;2023-03-01T07:29:39;7.30;92.30
15554;DHT22;7878;44.632;10.942;2023-03-01T07:32:05;7.40;92.20
15554;DHT22;7878;44.632;10.942;2023-03-01T07:34:31;7.40;92.50
15554;DHT22;7878;44.632;10.942;2023-03-01T07:36:57;7.40;92.30
15554;DHT22;7878;44.632;10.942;2023-03-01T07:39:23;7.40;92.40
15554;DHT22;7878;44.632;10.942;2023-03-01T07:41:50;7.30;92.60
15554;DHT22;7878;44.632;10.942;2023-03-01T07:44:15;7.30;92.60
15554;DHT22;7878;44.632;10.942;2023-03-01T07:46:43;7.30;93.00
15554;DHT22;7878;44.632;10.942;2023-03-01T07:49:08;7.40;92.90
15554;DHT22;7878;44.632;10.942;2023-03-01T07:51:34;7.40;92.90
15554;DHT22;7878;44.632;10.942;2023-03-01T07:54:00;7.40;92.90
15554;DHT22;7878;44.632;10.942;2023-03-01T07:56:25;7.30;92.70
15554;DHT22;7878;44.632;10.942;2023-03-01T07:58:51;7.20;92.80
15554;DHT22;7878;44.632;10.942;2023-03-01T08:01:18;7.20;93.00
15554;DHT22;7878;44.632;10.942;2023-03-01T08:03:44;7.20;93.20
15554;DHT22;7878;44.632;10.942;2023-03-01T08:06:11;7.00;93.60
15554;DHT22;7878;44.632;10.942;2023-03-01T08:08:38;7.00;93.70
15554;DHT22;7878;44.632;10.942;2023-03-01T08:11:05;6.90;93.70
15554;DHT22;7878;44.632;10.942;2023-03-01T08:13:32;6.80;94.00
15554;DHT22;7878;44.632;10.942;2023-03-01T08:16:05;6.80;93.90
15554;DHT22;7878;44.632;10.942;2023-03-01T08:18:31;6.80;94.00
15554;DHT22;7878;44.632;10.942;2023-03-01T08:21:09;6.80;94.10
15554;DHT22;7878;44.632;10.942;2023-03-01T08:23:36;6.90;94.20
15554;DHT22;7878;44.632;10.942;2023-03-01T08:26:06;6.90;94.10
15554;DHT22;7878;44.632;10.942;2023-03-01T08:28:32;6.90;94.20
15554;DHT22;7878;44.632;10.942;2023-03-01T08:30:58;7.00;94.10
15554;DHT22;7878;44.632;10.942;2023-03-01T08:33:24;7.00;94.10
15554;DHT22;7878;44.632;10.942;2023-03-01T08:35:49;7.00;94.20
15554;DHT22;7878;44.632;10.942;2023-03-01T08:38:15;7.10;94.40
15554;DHT22;7878;44.632;10.942;2023-03-01T08:40:40;7.10;94.30
15554;DHT22;7878;44.632;10.942;2023-03-01T08:43:06;7.10;94.70
15554;DHT22;7878;44.632;10.942;2023-03-01T08:45:32;7.10;94.80
15554;DHT22;7878;44.632;10.942;2023-03-01T08:47:57;7.10;94.60
15554;DHT22;7878;44.632;10.942;2023-03-01T08:50:23;7.00;94.70
15554;DHT22;7878;44.632;10.942;2023-03-01T08:52:50;7.00;94.90
15554;DHT22;7878;44.632;10.942;2023-03-01T08:55:16;7.00;95.00
15554;DHT22;7878;44.632;10.942;2023-03-01T08:57:43;7.00;95.10
15554;DHT22;7878;44.632;10.942;2023-03-01T09:00:10;6.90;95.20
15554;DHT22;7878;44.632;10.942;2023-03-01T09:02:36;6.90;95.30
15554;DHT22;7878;44.632;10.942;2023-03-01T09:05:02;6.90;95.20
15554;DHT22;7878;44.632;10.942;2023-03-01T09:07:28;6.90;95.50
15554;DHT22;7878;44.632;10.942;2023-03-01T09:09:54;6.90;95.60
15554;DHT22;7878;44.632;10.942;2023-03-01T09:12:20;6.90;95.70
15554;DHT22;7878;44.632;10.942;2023-03-01T09:14:46;6.90;96.00
15554;DHT22;7878;44.632;10.942;2023-03-01T09:17:12;6.70;96.50
15554;DHT22;7878;44.632;10.942;2023-03-01T09:19:37;6.70;96.60
15554;DHT22;7878;44.632;10.942;2023-03-01T09:22:04;6.80;96.80
15554;DHT22;7878;44.632;10.942;2023-03-01T09:24:30;6.90;96.50
15554;DHT22;7878;44.632;10.942;2023-03-01T09:26:56;6.90;96.60
15554;DHT22;7878;44.632;10.942;2023-03-01T09:29:21;6.80;96.60
15554;DHT22;7878;44.632;10.942;2023-03-01T09:31:47;6.70;96.70
15554;DHT22;7878;44.632;10.942;2023-03-01T09:34:13;6.70;96.90
15554;DHT22;7878;44.632;10.942;2023-03-01T09:36:41;6.70;97.40
15554;DHT22;7878;44.632;10.942;2023-03-01T09:39:07;6.80;96.40
15554;DHT22;7878;44.632;10.942;2023-03-01T09:46:56;7.00;96.10
15554;DHT22;7878;44.632;10.942;2023-03-01T09:49:35;7.00;95.80
15554;DHT22;7878;44.632;10.942;2023-03-01T09:52:29;6.90;95.70
15554;DHT22;7878;44.632;10.942;2023-03-01T09:54:58;7.00;95.40
15554;DHT22;7878;44.632;10.942;2023-03-01T09:57:33;7.00;95.70
15554;DHT22;7878;44.632;10.942;2023-03-01T10:03:08;7.00;95.10
15554;DHT22;7878;44.632;10.942;2023-03-01T10:08:56;7.10;95.80
15554;DHT22;7878;44.632;10.942;2023-03-01T10:11:32;7.20;97.40
15554;DHT22;7878;44.632;10.942;2023-03-01T10:14:15;7.20;96.30
15554;DHT22;7878;44.632;10.942;2023-03-01T10:17:04;7.20;96.40
15554;DHT22;7878;44.632;10.942;2023-03-01T10:19:44;7.10;96.80
15554;DHT22;7878;44.632;10.942;2023-03-01T10:22:26;7.10;96.20
15554;DHT22;7878;44.632;10.942;2023-03-01T10:25:02;7.10;96.00
15554;DHT22;7878;44.632;10.942;2023-03-01T10:32:45;6.80;96.30
15554;DHT22;7878;44.632;10.942;2023-03-01T10:35:19;6.80;96.30
15554;DHT22;7878;44.632;10.942;2023-03-01T10:40:28;6.80;96.30
15554;DHT22;7878;44.632;10.942;2023-03-01T10:42:57;6.80;96.50
15554;DHT22;7878;44.632;10.942;2023-03-01T10:45:30;6.80;96.30
15554;DHT22;7878;44.632;10.942;2023-03-01T10:50:46;6.80;96.30
15554;DHT22;7878;44.632;10.942;2023-03-01T10:53:45;6.80;96.10
15554;DHT22;7878;44.632;10.942;2023-03-01T10:56:14;6.80;96.10
15554;DHT22;7878;44.632;10.942;2023-03-01T10:59:04;6.70;96.20
15554;DHT22;7878;44.632;10.942;2023-03-01T11:01:34;6.70;96.20
15554;DHT22;7878;44.632;10.942;2023-03-01T11:06:36;6.70;96.90
15554;DHT22;7878;44.632;10.942;2023-03-01T11:09:22;6.70;97.30
15554;DHT22;7878;44.632;10.942;2023-03-01T11:11:56;6.70;97.80
15554;DHT22;7878;44.632;10.942;2023-03-01T11:14:29;6.80;97.60
15554;DHT22;7878;44.632;10.942;2023-03-01T11:17:10;6.90;97.90
15554;DHT22;7878;44.632;10.942;2023-03-01T11:19:37;6.90;98.80
15554;DHT22;7878;44.632;10.942;2023-03-01T11:22:12;7.00;98.70
15554;DHT22;7878;44.632;10.942;2023-03-01T11:27:31;7.10;99.20
15554;DHT22;7878;44.632;10.942;2023-03-01T11:32:42;7.00;98.80
15554;DHT22;7878;44.632;10.942;2023-03-01T11:38:09;7.00;99.90
15554;DHT22;7878;44.632;10.942;2023-03-01T11:41:26;7.00;99.90
15554;DHT22;7878;44.632;10.942;2023-03-01T11:53:05;6.90;99.90
15554;DHT22;7878;44.632;10.942;2023-03-01T11:58:43;6.90;99.90
15554;DHT22;7878;44.632;10.942;2023-03-01T12:05:07;6.90;99.90
15554;DHT22;7878;44.632;10.942;2023-03-01T12:15:38;6.80;99.90
15554;DHT22;7878;44.632;10.942;2023-03-01T12:21:51;6.60;99.90
15554;DHT22;7878;44.632;10.942;2023-03-01T12:27:09;6.50;99.90
15554;DHT22;7878;44.632;10.942;2023-03-01T12:37:40;6.70;99.90
15554;DHT22;7878;44.632;10.942;2023-03-01T12:51:14;6.80;99.90
15554;DHT22;7878;44.632;10.942;2023-03-01T12:53:47;6.70;99.90
15554;DHT22;7878;44.632;10.942;2023-03-01T12:56:26;6.70;99.90
15554;DHT22;7878;44.632;10.942;2023-03-01T13:10:33;6.70;99.90
15554;DHT22;7878;44.632;10.942;2023-03-01T13:13:13;6.70;99.90
15554;DHT22;7878;44.632;10.942;2023-03-01T13:15:41;6.70;99.90
15554;DHT22;7878;44.632;10.942;2023-03-01T13:26:11;6.60;99.90
15554;DHT22;7878;44.632;10.942;2023-03-01T13:34:01;6.40;99.90
15554;DHT22;7878;44.632;10.942;2023-03-01T13:46:57;6.40;99.90
15554;DHT22;7878;44.632;10.942;2023-03-01T13:49:42;6.50;99.90
15554;DHT22;7878;44.632;10.942;2023-03-01T13:52:38;6.50;99.90
15554;DHT22;7878;44.632;10.942;2023-03-01T13:57:49;6.50;99.50
15554;DHT22;7878;44.632;10.942;2023-03-01T14:00:36;6.50;99.30
15554;DHT22;7878;44.632;10.942;2023-03-01T14:03:09;6.50;99.40
15554;DHT22;7878;44.632;10.942;2023-03-01T14:05:35;6.50;99.60
15554;DHT22;7878;44.632;10.942;2023-03-01T14:08:03;6.50;99.30
15554;DHT22;7878;44.632;10.942;2023-03-01T14:10:48;6.40;99.10
15554;DHT22;7878;44.632;10.942;2023-03-01T14:13:42;6.40;99.10
15554;DHT22;7878;44.632;10.942;2023-03-01T14:16:17;6.30;99.60
15554;DHT22;7878;44.632;10.942;2023-03-01T14:21:30;6.40;99.90
15554;DHT22;7878;44.632;10.942;2023-03-01T14:23:57;6.40;99.90
15554;DHT22;7878;44.632;10.942;2023-03-01T14:26:24;6.40;99.90
15554;DHT22;7878;44.632;10.942;2023-03-01T14:28:50;6.40;99.70
15554;DHT22;7878;44.632;10.942;2023-03-01T14:31:36;6.40;99.90
15554;DHT22;7878;44.632;10.942;2023-03-01T14:34:03;6.40;99.90
15554;DHT22;7878;44.632;10.942;2023-03-01T14:36:31;6.30;99.90
15554;DHT22;7878;44.632;10.942;2023-03-01T14:38:58;6.30;99.90
15554;DHT22;7878;44.632;10.942;2023-03-01T14:41:32;6.40;99.90
15554;DHT22;7878;44.632;10.942;2023-03-01T14:46:33;6.30;99.80
15554;DHT22;7878;44.632;10.942;2023-03-01T14:49:06;6.30;99.90
15554;DHT22;7878;44.632;10.942;2023-03-01T14:51:37;6.20;99.90
15554;DHT22;7878;44.632;10.942;2023-03-01T14:54:50;6.20;99.90
15554;DHT22;7878;44.632;10.942;2023-03-01T14:56:51;6.20;99.90
15554;DHT22;7878;44.632;10.942;2023-03-01T14:59:22;6.20;99.90
15554;DHT22;7878;44.632;10.942;2023-03-01T15:01:49;6.20;99.90
15554;DHT22;7878;44.632;10.942;2023-03-01T15:04:16;6.20;99.90
15554;DHT22;7878;44.632;10.942;2023-03-01T15:06:43;6.20;99.90
15554;DHT22;7878;44.632;10.942;2023-03-01T15:09:14;6.20;99.90
15554;DHT22;7878;44.632;10.942;2023-03-01T15:11:41;6.20;99.90
15554;DHT22;7878;44.632;10.942;2023-03-01T15:14:41;6.10;99.90
15554;DHT22;7878;44.632;10.942;2023-03-01T15:19:47;6.00;99.90
15554;DHT22;7878;44.632;10.942;2023-03-01T15:22:16;6.00;99.90
15554;DHT22;7878;44.632;10.942;2023-03-01T15:24:47;6.00;99.90
15554;DHT22;7878;44.632;10.942;2023-03-01T15:27:17;6.10;99.90
15554;DHT22;7878;44.632;10.942;2023-03-01T15:32:34;6.10;99.90
15554;DHT22;7878;44.632;10.942;2023-03-01T15:43:51;6.10;99.90
15554;DHT22;7878;44.632;10.942;2023-03-01T15:46:30;6.10;99.90
15554;DHT22;7878;44.632;10.942;2023-03-01T15:49:00;6.10;99.90
15554;DHT22;7878;44.632;10.942;2023-03-01T15:51:36;6.10;99.90
15554;DHT22;7878;44.632;10.942;2023-03-01T15:54:10;6.00;99.90
15554;DHT22;7878;44.632;10.942;2023-03-01T15:56:39;6.00;99.90
15554;DHT22;7878;44.632;10.942;2023-03-01T15:59:05;5.90;99.90
15554;DHT22;7878;44.632;10.942;2023-03-01T16:01:32;5.90;99.90
15554;DHT22;7878;44.632;10.942;2023-03-01T16:04:00;5.80;99.90
15554;DHT22;7878;44.632;10.942;2023-03-01T16:06:25;5.80;99.90
15554;DHT22;7878;44.632;10.942;2023-03-01T16:08:51;5.80;99.90
15554;DHT22;7878;44.632;10.942;2023-03-01T16:11:18;5.80;99.90
15554;DHT22;7878;44.632;10.942;2023-03-01T16:13:45;5.80;99.90
15554;DHT22;7878;44.632;10.942;2023-03-01T16:16:12;5.80;99.90
15554;DHT22;7878;44.632;10.942;2023-03-01T16:18:44;5.90;99.90
15554;DHT22;7878;44.632;10.942;2023-03-01T16:21:24;5.90;99.90
15554;DHT22;7878;44.632;10.942;2023-03-01T16:23:51;5.90;99.90
15554;DHT22;7878;44.632;10.942;2023-03-01T16:26:17;6.00;99.90
15554;DHT22;7878;44.632;10.942;2023-03-01T16:28:44;6.00;99.90
15554;DHT22;7878;44.632;10.942;2023-03-01T16:31:10;6.00;99.90
15554;DHT22;7878;44.632;10.942;2023-03-01T16:33:37;6.00;99.90
15554;DHT22;7878;44.632;10.942;2023-03-01T16:36:11;6.00;99.90
15554;DHT22;7878;44.632;10.942;2023-03-01T16:38:37;5.90;99.90
15554;DHT22;7878;44.632;10.942;2023-03-01T16:41:04;5.80;99.90
15554;DHT22;7878;44.632;10.942;2023-03-01T16:43:30;5.90;99.90
15554;DHT22;7878;44.632;10.942;2023-03-01T16:45:56;6.00;99.90
15554;DHT22;7878;44.632;10.942;2023-03-01T16:48:22;6.00;99.90
15554;DHT22;7878;44.632;10.942;2023-03-01T16:50:58;6.00;99.90
15554;DHT22;7878;44.632;10.942;2023-03-01T16:53:24;6.10;99.90
15554;DHT22;7878;44.632;10.942;2023-03-01T16:55:55;6.10;99.90
15554;DHT22;7878;44.632;10.942;2023-03-01T16:58:21;6.20;99.90
15554;DHT22;7878;44.632;10.942;2023-03-01T17:00:50;6.10;99.90
15554;DHT22;7878;44.632;10.942;2023-03-01T17:03:16;6.10;99.90
15554;DHT22;7878;44.632;10.942;2023-03-01T17:05:42;6.10;99.90
15554;DHT22;7878;44.632;10.942;2023-03-01T17:08:08;6.20;99.90
15554;DHT22;7878;44.632;10.942;2023-03-01T17:10:33;6.20;99.90
15554;DHT22;7878;44.632;10.942;2023-03-01T17:12:59;6.20;99.90
15554;DHT22;7878;44.632;10.942;2023-03-01T17:15:25;6.20;99.90
15554;DHT22;7878;44.632;10.942;2023-03-01T17:17:50;6.20;99.90
15554;DHT22;7878;44.632;10.942;2023-03-01T17:20:16;6.20;99.90
15554;DHT22;7878;44.632;10.942;2023-03-01T17:22:42;6.10;99.90
15554;DHT22;7878;44.632;10.942;2023-03-01T17:25:09;6.10;99.90
15554;DHT22;7878;44.632;10.942;2023-03-01T17:27:37;6.10;99.90
15554;DHT22;7878;44.632;10.942;2023-03-01T17:30:04;6.10;99.90
15554;DHT22;7878;44.632;10.942;2023-03-01T17:32:29;6.20;99.90
15554;DHT22;7878;44.632;10.942;2023-03-01T17:34:55;6.20;99.90
15554;DHT22;7878;44.632;10.942;2023-03-01T17:37:21;6.20;99.90
15554;DHT22;7878;44.632;10.942;2023-03-01T17:39:47;6.20;99.90
15554;DHT22;7878;44.632;10.942;2023-03-01T17:42:12;6.20;99.90
15554;DHT22;7878;44.632;10.942;2023-03-01T17:44:38;6.20;99.90
15554;DHT22;7878;44.632;10.942;2023-03-01T17:47:04;6.20;99.90
15554;DHT22;7878;44.632;10.942;2023-03-01T17:49:32;6.20;99.90
15554;DHT22;7878;44.632;10.942;2023-03-01T17:51:58;6.20;99.90
15554;DHT22;7878;44.632;10.942;2023-03-01T17:54:23;6.20;99.90
15554;DHT22;7878;44.632;10.942;2023-03-01T17:56:50;6.20;99.90
15554;DHT22;7878;44.632;10.942;2023-03-01T17:59:15;6.10;99.90
15554;DHT22;7878;44.632;10.942;2023-03-01T18:01:42;6.10;99.90
15554;DHT22;7878;44.632;10.942;2023-03-01T18:04:08;6.10;99.90
15554;DHT22;7878;44.632;10.942;2023-03-01T18:06:35;6.20;99.90
15554;DHT22;7878;44.632;10.942;2023-03-01T18:09:01;6.10;99.90
15554;DHT22;7878;44.632;10.942;2023-03-01T18:11:27;6.20;99.90
15554;DHT22;7878;44.632;10.942;2023-03-01T18:13:53;6.20;99.90
15554;DHT22;7878;44.632;10.942;2023-03-01T18:16:20;6.20;99.90
15554;DHT22;7878;44.632;10.942;2023-03-01T18:18:47;6.20;99.90
15554;DHT22;7878;44.632;10.942;2023-03-01T18:21:16;6.20;99.90
15554;DHT22;7878;44.632;10.942;2023-03-01T18:23:42;6.20;99.90
15554;DHT22;7878;44.632;10.942;2023-03-01T18:26:10;6.30;99.90